createdAt,value
2023-01-26T00:02:56.012Z,2.0
2023-01-26T00:08:02.190Z,2.0
2023-01-26T00:13:08.390Z,2.0
2023-01-26T00:18:14.627Z,2.0
2023-01-26T00:23:20.808Z,2.0
2023-01-26T00:28:27.011Z,2.0
2023-01-26T00:33:33.223Z,2.0
2023-01-26T00:38:39.438Z,2.0
2023-01-26T00:43:45.633Z,2.0
2023-01-26T00:48:51.843Z,2.0
2023-01-26T00:53:58.060Z,2.0
2023-01-26T00:59:04.256Z,2.0
2023-01-26T01:04:10.461Z,2.0
2023-01-26T01:09:16.665Z,2.0
2023-01-26T01:14:22.892Z,2.0
2023-01-26T01:19:29.090Z,2.0
2023-01-26T01:24:35.298Z,2.0
2023-01-26T01:29:41.504Z,2.0
2023-01-26T01:34:47.742Z,2.0
2023-01-26T01:39:53.158Z,2.0
2023-01-26T01:44:59.159Z,2.0
2023-01-26T01:50:04.385Z,2.0
2023-01-26T01:55:10.610Z,2.0
2023-01-26T02:00:16.802Z,2.0
2023-01-26T02:05:23.023Z,2.0
2023-01-26T02:10:29.212Z,2.0
2023-01-26T02:15:35.470Z,2.1
2023-01-26T02:20:41.622Z,2.1
2023-01-26T02:25:47.837Z,2.1
2023-01-26T02:30:54.191Z,2.1
2023-01-26T02:36:00.258Z,2.1
2023-01-26T02:41:06.452Z,2.2
2023-01-26T02:46:12.730Z,2.2
2023-01-26T02:51:18.885Z,2.2
2023-01-26T02:56:25.091Z,2.2
2023-01-26T03:01:32.603Z,2.2
2023-01-26T03:06:37.492Z,2.2
2023-01-26T03:11:43.713Z,2.2
2023-01-26T03:16:49.898Z,2.2
2023-01-26T03:21:56.122Z,2.2
2023-01-26T03:27:02.333Z,2.2
2023-01-26T03:32:08.527Z,2.2
2023-01-26T03:37:13.782Z,2.2
2023-01-26T03:42:19.979Z,2.2
2023-01-26T03:47:26.190Z,2.3
2023-01-26T03:52:31.432Z,2.3
2023-01-26T03:57:37.629Z,2.3
2023-01-26T04:02:43.824Z,2.3
2023-01-26T04:07:50.052Z,2.3
2023-01-26T04:12:56.236Z,2.3
2023-01-26T04:18:02.450Z,2.4
2023-01-26T04:23:08.648Z,2.4
2023-01-26T04:28:14.867Z,2.4
2023-01-26T04:33:21.091Z,2.4
2023-01-26T04:38:27.274Z,2.5
2023-01-26T04:43:33.479Z,2.5
2023-01-26T04:48:39.711Z,2.5
2023-01-26T04:53:45.894Z,2.5
2023-01-26T04:58:52.107Z,2.6
2023-01-26T05:03:58.352Z,2.6
2023-01-26T05:09:04.510Z,2.6
2023-01-26T05:14:10.727Z,2.7
2023-01-26T05:19:16.933Z,2.7
2023-01-26T05:24:23.206Z,2.7
2023-01-26T05:29:29.344Z,2.8
2023-01-26T05:34:34.576Z,2.8
2023-01-26T05:39:39.807Z,2.8
2023-01-26T05:44:46.019Z,2.8
2023-01-26T05:49:52.223Z,2.8
2023-01-26T05:54:57.468Z,2.9
2023-01-26T06:00:03.673Z,2.9
2023-01-26T06:05:09.867Z,2.9
2023-01-26T06:10:16.078Z,2.9
2023-01-26T06:15:22.290Z,2.9
2023-01-26T06:20:28.552Z,2.9
2023-01-26T06:25:34.702Z,2.9
2023-01-26T06:30:40.974Z,3.0
2023-01-26T06:35:47.202Z,3.0
2023-01-26T06:40:53.341Z,3.0
2023-01-26T06:45:59.566Z,3.0
2023-01-26T06:51:05.784Z,3.0
2023-01-26T06:56:11.961Z,3.0
2023-01-26T07:01:18.191Z,3.0
2023-01-26T07:06:24.385Z,3.0
2023-01-26T07:11:30.605Z,3.0
2023-01-26T07:16:36.895Z,3.0
2023-01-26T07:21:43.011Z,3.0
2023-01-26T07:26:49.224Z,3.0
2023-01-26T07:31:55.443Z,3.1
2023-01-26T07:37:01.642Z,3.0
2023-01-26T07:42:06.871Z,3.1
2023-01-26T07:47:13.166Z,3.0
2023-01-26T07:52:18.314Z,3.1
2023-01-26T07:57:24.530Z,3.1
2023-01-26T08:02:30.808Z,3.1
2023-01-26T08:07:36.952Z,3.1
2023-01-26T08:12:43.155Z,3.2
2023-01-26T08:17:49.363Z,3.2
2023-01-26T08:22:55.567Z,3.2
2023-01-26T08:28:01.777Z,3.2
2023-01-26T08:33:07.984Z,3.2
2023-01-26T08:38:14.185Z,3.2
2023-01-26T08:43:20.411Z,3.2
2023-01-26T08:48:26.634Z,3.3
2023-01-26T08:53:32.823Z,3.3
2023-01-26T08:58:39.031Z,3.3
2023-01-26T09:03:45.242Z,3.3
2023-01-26T09:08:51.442Z,3.3
2023-01-26T09:13:57.654Z,3.4
2023-01-26T09:19:03.862Z,3.4
2023-01-26T09:24:10.215Z,3.4
2023-01-26T09:29:16.269Z,3.5
2023-01-26T09:34:22.484Z,3.5
2023-01-26T09:39:27.719Z,3.5
2023-01-26T09:44:33.921Z,3.6
2023-01-26T09:49:40.131Z,3.6
2023-01-26T09:54:46.338Z,3.7
2023-01-26T09:59:52.557Z,3.7
2023-01-26T10:04:57.778Z,3.7
2023-01-26T10:10:04.000Z,3.8
2023-01-26T10:15:10.326Z,3.8
2023-01-26T10:20:16.403Z,3.9
2023-01-26T10:25:25.241Z,3.9
2023-01-26T10:30:28.839Z,3.9
2023-01-26T10:35:35.027Z,3.9
2023-01-26T10:40:41.258Z,4.0
2023-01-26T10:45:47.437Z,4.0
2023-01-26T10:50:53.651Z,4.1
2023-01-26T10:55:59.862Z,4.1
2023-01-26T11:01:06.059Z,4.1
2023-01-26T11:06:12.271Z,4.2
2023-01-26T11:11:18.477Z,4.2
2023-01-26T11:16:24.721Z,4.3
2023-01-26T11:21:30.894Z,4.3
2023-01-26T11:26:37.095Z,4.4
2023-01-26T11:31:43.371Z,4.5
2023-01-26T11:36:49.514Z,4.6
2023-01-26T11:41:55.722Z,4.7
2023-01-26T11:47:01.931Z,4.9
2023-01-26T11:52:07.164Z,5.0
2023-01-26T11:57:13.423Z,5.1
2023-01-26T12:02:19.602Z,5.3
2023-01-26T12:07:25.879Z,5.4
2023-01-26T12:12:32.013Z,5.6
2023-01-26T12:17:37.224Z,5.7
2023-01-26T12:22:43.430Z,5.9
2023-01-26T12:27:49.677Z,6.0
2023-01-26T12:32:55.863Z,6.2
2023-01-26T12:38:17.081Z,6.3
2023-01-26T12:43:08.263Z,6.4
2023-01-26T12:48:14.479Z,6.6
2023-01-26T12:53:20.682Z,6.7
2023-01-26T12:58:26.890Z,6.9
2023-01-26T13:03:33.097Z,7.0
2023-01-26T13:08:39.305Z,7.2
2023-01-26T13:13:45.512Z,7.4
2023-01-26T13:18:51.722Z,7.6
2023-01-26T13:23:57.987Z,7.8
2023-01-26T13:29:04.129Z,8.0
2023-01-26T13:34:10.340Z,8.2
2023-01-26T13:39:16.562Z,8.4
2023-01-26T13:44:22.759Z,8.6
2023-01-26T13:49:28.964Z,8.7
2023-01-26T13:54:35.170Z,8.9
2023-01-26T13:59:41.379Z,9.0
2023-01-26T14:04:46.621Z,9.1
2023-01-26T14:09:52.821Z,9.2
2023-01-26T14:14:58.077Z,9.3
2023-01-26T14:20:04.261Z,9.4
2023-01-26T14:25:10.954Z,9.4
2023-01-26T14:30:16.699Z,9.5
2023-01-26T14:35:22.894Z,9.6
2023-01-26T14:40:29.099Z,9.6
2023-01-26T14:45:35.408Z,9.6
2023-01-26T14:50:41.515Z,9.6
2023-01-26T14:55:47.717Z,9.6
2023-01-26T15:00:54.004Z,9.6
2023-01-26T15:06:00.200Z,9.5
2023-01-26T15:11:06.341Z,9.5
2023-01-26T15:16:12.869Z,9.5
2023-01-26T15:21:18.765Z,9.5
2023-01-26T15:26:24.967Z,9.5
2023-01-26T15:31:31.239Z,9.4
2023-01-26T15:36:37.380Z,9.4
2023-01-26T15:41:43.592Z,9.3
2023-01-26T15:46:49.851Z,9.3
2023-01-26T15:51:56.020Z,9.2
2023-01-26T15:57:02.221Z,9.2
2023-01-26T16:02:07.511Z,9.2
2023-01-26T16:07:13.669Z,9.1
2023-01-26T16:12:31.083Z,9.0
2023-01-26T16:17:25.109Z,9.0
2023-01-26T16:22:31.313Z,8.9
2023-01-26T16:27:37.545Z,8.8
2023-01-26T16:32:43.747Z,8.8
2023-01-26T16:37:50.103Z,8.8
2023-01-26T16:42:56.145Z,8.8
2023-01-26T16:48:02.365Z,8.8
2023-01-26T16:53:08.554Z,8.8
2023-01-26T16:58:14.774Z,8.8
2023-01-26T17:03:20.992Z,8.8
2023-01-26T17:08:27.193Z,8.8
2023-01-26T17:13:33.388Z,8.8
2023-01-26T17:18:39.599Z,8.8
2023-01-26T17:23:45.814Z,8.8
2023-01-26T17:28:52.017Z,8.8
2023-01-26T17:33:58.240Z,8.8
2023-01-26T17:39:04.558Z,8.8
2023-01-26T17:44:10.644Z,8.7
2023-01-26T17:49:16.859Z,8.7
2023-01-26T17:54:23.081Z,8.7
2023-01-26T17:59:28.282Z,8.7
2023-01-26T18:04:34.487Z,8.7
2023-01-26T18:09:40.701Z,8.7
2023-01-26T18:14:45.945Z,8.7
2023-01-26T18:19:52.236Z,8.6
2023-01-26T18:24:58.463Z,8.6
2023-01-26T18:30:04.561Z,8.6
2023-01-26T18:35:11.104Z,8.5
2023-01-26T18:40:16.974Z,8.5
2023-01-26T18:45:23.194Z,8.5
2023-01-26T18:50:29.402Z,8.5
2023-01-26T18:55:35.613Z,8.5
2023-01-26T19:00:41.826Z,8.5
2023-01-26T19:05:48.015Z,8.4
2023-01-26T19:10:54.234Z,8.4
2023-01-26T19:16:00.431Z,8.4
2023-01-26T19:21:06.654Z,8.4
2023-01-26T19:26:12.852Z,8.3
2023-01-26T19:31:19.308Z,8.3
2023-01-26T19:36:25.276Z,8.3
2023-01-26T19:41:31.483Z,8.3
2023-01-26T19:46:37.676Z,8.3
2023-01-26T19:51:43.889Z,8.3
2023-01-26T19:56:50.097Z,8.2
2023-01-26T20:01:56.374Z,8.2
2023-01-26T20:07:01.533Z,8.2
2023-01-26T20:12:07.746Z,8.2
2023-01-26T20:17:12.977Z,8.2
2023-01-26T20:22:19.186Z,8.2
2023-01-26T20:27:25.385Z,8.2
2023-01-26T20:32:31.625Z,8.2
2023-01-26T20:37:37.808Z,8.2
2023-01-26T20:42:44.039Z,8.2
2023-01-26T20:47:50.226Z,8.2
2023-01-26T20:52:56.424Z,8.2
2023-01-26T20:58:02.661Z,8.2
2023-01-26T21:03:08.861Z,8.2
2023-01-26T21:08:15.078Z,8.2
2023-01-26T21:13:21.264Z,8.2
2023-01-26T21:18:27.462Z,8.2
2023-01-26T21:23:33.672Z,8.3
2023-01-26T21:28:39.949Z,8.2
2023-01-26T21:33:46.094Z,8.3
2023-01-26T21:38:52.394Z,8.3
2023-01-26T21:43:58.505Z,8.3
2023-01-26T21:49:04.717Z,8.3
2023-01-26T21:54:10.918Z,8.3
2023-01-26T21:59:17.124Z,8.3
2023-01-26T22:04:22.453Z,8.3
2023-01-26T22:09:28.585Z,8.3
2023-01-26T22:14:33.822Z,8.3
2023-01-26T22:19:40.023Z,8.3
2023-01-26T22:24:46.220Z,8.3
2023-01-26T22:29:52.424Z,8.3
2023-01-26T22:34:58.745Z,8.2
2023-01-26T22:40:03.876Z,8.2
2023-01-26T22:45:10.078Z,8.2
2023-01-26T22:50:16.276Z,8.2
2023-01-26T22:55:22.482Z,8.1
2023-01-26T23:00:28.687Z,8.1
2023-01-26T23:05:34.922Z,8.1
2023-01-26T23:10:41.112Z,8.1
2023-01-26T23:15:47.317Z,8.0
2023-01-26T23:20:53.533Z,8.0
2023-01-26T23:25:59.778Z,7.9
2023-01-26T23:31:05.965Z,7.9
2023-01-26T23:36:12.148Z,7.9
2023-01-26T23:41:18.372Z,7.8
2023-01-26T23:46:24.602Z,7.8
2023-01-26T23:51:30.788Z,7.8
2023-01-26T23:56:36.980Z,7.7
